Hayden, Missouri
Current Conditions -  °F | °C
As of 7:58 AM on Tuesday 21 Oct 2014 (Local Time) from KTBN Reporting Station
Clear Clear  
Wind Chill: 45°   Ceiling: Unl
Heat Index: 45°   Visibility: 10mi
Dew Point: 45°   Wind: 2mph
Humidity: 100%   Direction: 240°WSW
Pressure: 30.12"   Gusts: NA
Location:  38.001°N, 92.0596°W
Report Text: KTBN 211258Z AUTO 24002KT 10SM CLR 07/07 A3012 RMK AO2 SLP202 T00740074
Loading
Personal Weather Stations






























Interactive Weather Map
Tropical Storm Tracking
New forecast layout! Learn more

10-Day Weather Forecast

Advertisements
Track Severe Weather on mobile